createdAt,value
2018-05-07T00:00:34.591Z,14.90
2018-05-07T00:03:01.061Z,14.80
2018-05-07T00:05:27.443Z,14.70
2018-05-07T00:07:54.504Z,14.60
2018-05-07T00:10:20.759Z,14.60
2018-05-07T00:12:47.035Z,14.30
2018-05-07T00:15:13.293Z,14.00
2018-05-07T00:17:39.539Z,14.00
2018-05-07T00:20:05.786Z,14.10
2018-05-07T00:22:32.255Z,14.10
2018-05-07T00:24:58.546Z,14.20
2018-05-07T00:27:24.814Z,14.00
2018-05-07T00:29:53.170Z,14.10
2018-05-07T00:32:19.398Z,14.10
2018-05-07T00:34:45.674Z,14.10
2018-05-07T00:37:11.877Z,14.00
2018-05-07T00:39:38.147Z,13.50
2018-05-07T00:42:04.584Z,13.30
2018-05-07T00:44:30.932Z,13.30
2018-05-07T00:46:57.165Z,13.20
2018-05-07T00:49:23.466Z,13.40
2018-05-07T00:51:49.669Z,13.50
2018-05-07T00:54:15.956Z,13.40
2018-05-07T00:56:42.240Z,13.40
2018-05-07T00:59:08.535Z,13.30
2018-05-07T01:01:35.511Z,13.20
2018-05-07T01:04:02.535Z,13.20
2018-05-07T01:06:28.914Z,13.20
2018-05-07T01:08:55.228Z,13.10
2018-05-07T01:11:21.529Z,13.00
2018-05-07T01:13:47.787Z,13.00
2018-05-07T01:16:14.048Z,13.00
2018-05-07T01:18:40.309Z,13.00
2018-05-07T01:21:07.451Z,12.80
2018-05-07T01:23:33.795Z,12.80
2018-05-07T01:26:00.480Z,12.70
2018-05-07T01:28:26.773Z,12.70
2018-05-07T01:30:53.217Z,12.70
2018-05-07T01:33:19.730Z,12.80
2018-05-07T01:35:46.072Z,12.80
2018-05-07T01:38:12.469Z,12.70
2018-05-07T01:40:38.767Z,12.60
2018-05-07T01:43:05.008Z,12.70
2018-05-07T01:45:31.268Z,12.70
2018-05-07T01:47:57.540Z,12.60
2018-05-07T01:50:23.871Z,12.60
2018-05-07T01:52:50.272Z,12.60
2018-05-07T01:55:17.630Z,12.60
2018-05-07T01:57:43.891Z,12.50
2018-05-07T02:00:10.231Z,12.50
2018-05-07T02:02:36.568Z,12.50
2018-05-07T02:05:02.893Z,12.50
2018-05-07T02:07:29.314Z,12.50
2018-05-07T02:09:56.055Z,12.40
2018-05-07T02:12:23.210Z,12.30
2018-05-07T02:14:49.499Z,12.20
2018-05-07T02:17:15.747Z,12.30
2018-05-07T02:19:41.988Z,12.20
2018-05-07T02:22:09.140Z,12.20
2018-05-07T02:24:36.160Z,12.00
2018-05-07T02:27:02.460Z,12.00
2018-05-07T02:29:28.851Z,12.00
2018-05-07T02:31:55.082Z,12.00
2018-05-07T02:34:21.440Z,12.10
2018-05-07T02:36:48.838Z,12.00
2018-05-07T02:39:15.864Z,12.00
2018-05-07T02:41:42.560Z,12.00
2018-05-07T02:44:08.849Z,12.00
2018-05-07T02:46:35.143Z,12.00
2018-05-07T02:49:02.166Z,12.10
2018-05-07T02:51:28.444Z,12.10
2018-05-07T02:53:54.681Z,12.10
2018-05-07T02:56:20.907Z,12.00
2018-05-07T02:58:47.967Z,12.00
2018-05-07T03:01:14.278Z,12.00
2018-05-07T03:03:40.589Z,12.00
2018-05-07T03:06:06.852Z,11.90
2018-05-07T03:08:33.118Z,11.70
2018-05-07T03:10:59.404Z,11.70
2018-05-07T03:13:25.724Z,11.60
2018-05-07T03:15:52.043Z,11.60
2018-05-07T03:18:18.281Z,11.60
2018-05-07T03:20:44.543Z,11.60
2018-05-07T03:23:10.792Z,11.50
2018-05-07T03:25:37.042Z,11.50
2018-05-07T03:28:03.368Z,11.50
2018-05-07T03:30:29.658Z,11.40
2018-05-07T03:32:55.859Z,11.30
2018-05-07T03:35:24.296Z,11.20
2018-05-07T03:37:50.551Z,11.20
2018-05-07T03:40:16.855Z,11.20
2018-05-07T03:42:43.185Z,11.10
2018-05-07T03:45:10.219Z,11.10
2018-05-07T03:47:38.520Z,11.10
2018-05-07T03:50:05.960Z,11.10
2018-05-07T03:52:32.284Z,11.10
2018-05-07T03:55:02.786Z,11.10
2018-05-07T03:57:33.174Z,11.10
2018-05-07T04:00:01.844Z,11.20
2018-05-07T04:02:29.144Z,11.30
2018-05-07T04:04:55.529Z,11.40
2018-05-07T04:07:22.091Z,11.50
2018-05-07T04:09:50.532Z,11.50
2018-05-07T04:12:19.842Z,11.60
2018-05-07T04:14:46.233Z,11.70
2018-05-07T04:17:24.874Z,11.70
2018-05-07T04:20:03.379Z,11.80
2018-05-07T04:22:43.972Z,11.90
2018-05-07T04:25:12.812Z,11.90
2018-05-07T04:27:39.392Z,12.00
2018-05-07T04:30:05.778Z,12.00
2018-05-07T04:32:32.599Z,12.20
2018-05-07T04:35:01.600Z,12.20
2018-05-07T04:37:28.501Z,12.30
2018-05-07T04:39:55.011Z,12.30
2018-05-07T04:42:21.644Z,12.40
2018-05-07T04:44:48.012Z,12.50
2018-05-07T04:47:22.489Z,12.60
2018-05-07T04:49:49.905Z,12.60
2018-05-07T04:52:16.209Z,12.70
2018-05-07T04:54:45.602Z,12.80
2018-05-07T04:57:12.203Z,12.90
2018-05-07T04:59:40.237Z,13.00
2018-05-07T05:02:06.838Z,13.00
2018-05-07T05:04:33.127Z,13.20
2018-05-07T05:06:59.339Z,13.20
2018-05-07T05:09:25.563Z,13.30
2018-05-07T05:11:51.760Z,13.40
2018-05-07T05:14:19.838Z,13.60
2018-05-07T05:16:46.210Z,13.60
2018-05-07T05:19:12.480Z,13.70
2018-05-07T05:21:38.752Z,13.80
2018-05-07T05:24:05.074Z,13.80
2018-05-07T05:26:31.637Z,13.90
2018-05-07T05:29:00.035Z,14.00
2018-05-07T05:31:26.297Z,14.10
2018-05-07T05:33:53.231Z,14.10
2018-05-07T05:36:20.537Z,14.20
2018-05-07T05:38:46.788Z,14.30
2018-05-07T05:41:13.019Z,14.40
2018-05-07T05:43:39.463Z,14.50
2018-05-07T05:46:06.908Z,14.60
2018-05-07T05:48:33.310Z,14.70
2018-05-07T05:51:01.801Z,14.80
2018-05-07T05:53:28.676Z,14.90
2018-05-07T05:56:00.183Z,15.00
2018-05-07T05:58:29.688Z,15.10
2018-05-07T06:00:57.052Z,15.10
2018-05-07T06:03:24.370Z,15.30
2018-05-07T06:05:50.640Z,15.30
2018-05-07T06:08:21.956Z,15.40
2018-05-07T06:10:49.293Z,15.50
2018-05-07T06:13:17.687Z,15.60
2018-05-07T06:15:44.003Z,15.70
2018-05-07T06:18:11.443Z,15.70
2018-05-07T06:20:42.105Z,15.70
2018-05-07T06:23:08.808Z,15.80
2018-05-07T06:25:35.154Z,15.80
2018-05-07T06:28:03.329Z,15.90
2018-05-07T06:30:29.582Z,15.90
2018-05-07T06:32:55.808Z,16.00
2018-05-07T06:35:22.161Z,16.10
2018-05-07T06:37:48.435Z,16.20
2018-05-07T06:40:14.866Z,16.20
2018-05-07T06:42:41.132Z,16.20
2018-05-07T06:45:07.515Z,16.30
2018-05-07T06:47:34.219Z,16.30
2018-05-07T06:50:00.512Z,16.40
2018-05-07T06:52:26.732Z,16.50
2018-05-07T06:54:53.058Z,16.50
2018-05-07T06:57:19.366Z,16.60
2018-05-07T06:59:45.667Z,16.70
2018-05-07T07:02:11.941Z,16.70
2018-05-07T07:04:38.068Z,16.70
2018-05-07T07:07:04.504Z,16.80
2018-05-07T07:09:30.836Z,16.90
2018-05-07T07:11:57.891Z,17.10
2018-05-07T07:14:24.166Z,17.10
2018-05-07T07:16:50.393Z,17.10
2018-05-07T07:19:16.590Z,17.20
2018-05-07T07:21:42.841Z,17.30
2018-05-07T07:24:09.086Z,17.40
2018-05-07T07:26:35.508Z,17.40
2018-05-07T07:29:01.782Z,17.50
2018-05-07T07:31:28.051Z,17.50
2018-05-07T07:33:54.305Z,17.60
2018-05-07T07:36:20.499Z,17.60
2018-05-07T07:38:46.719Z,17.60
2018-05-07T07:41:13.195Z,17.70
2018-05-07T07:43:39.396Z,17.80
2018-05-07T07:46:05.811Z,18.00
2018-05-07T07:48:32.144Z,18.10
2018-05-07T07:50:59.409Z,18.20
2018-05-07T07:53:25.720Z,18.20
2018-05-07T07:55:52.164Z,18.30
2018-05-07T07:58:18.435Z,18.30
2018-05-07T08:00:47.138Z,18.40
2018-05-07T08:03:13.742Z,18.40
2018-05-07T08:05:40.858Z,18.50
2018-05-07T08:08:07.289Z,18.60
2018-05-07T08:10:33.631Z,18.70
2018-05-07T08:12:59.866Z,18.70
2018-05-07T08:15:27.263Z,18.80
2018-05-07T08:17:53.536Z,19.00
2018-05-07T08:20:19.871Z,19.00
2018-05-07T08:22:47.073Z,19.20
2018-05-07T08:25:13.324Z,19.20
2018-05-07T08:27:39.565Z,19.20
2018-05-07T08:30:05.865Z,19.30
2018-05-07T08:32:32.167Z,19.30
2018-05-07T08:35:02.109Z,19.40
2018-05-07T08:37:28.361Z,19.50
2018-05-07T08:39:54.668Z,19.60
2018-05-07T08:42:21.146Z,19.60
2018-05-07T08:44:47.590Z,19.70
2018-05-07T08:47:13.972Z,19.80
2018-05-07T08:49:40.206Z,19.90
2018-05-07T08:52:06.542Z,19.90
2018-05-07T08:54:32.780Z,20.00
2018-05-07T08:56:59.396Z,20.00
2018-05-07T08:59:25.887Z,20.10
2018-05-07T09:01:53.492Z,20.20
2018-05-07T09:04:19.703Z,20.30
2018-05-07T09:06:46.071Z,20.30
2018-05-07T09:09:12.315Z,20.30
2018-05-07T09:11:38.594Z,20.30
2018-05-07T09:14:05.066Z,20.40
2018-05-07T09:16:31.562Z,20.50
2018-05-07T09:18:58.061Z,20.50
2018-05-07T09:21:24.431Z,20.70
2018-05-07T09:23:50.709Z,20.70
2018-05-07T09:26:19.016Z,20.80
2018-05-07T09:28:45.369Z,20.80
2018-05-07T09:31:15.313Z,20.80
2018-05-07T09:33:41.620Z,20.90
2018-05-07T09:36:08.786Z,20.90
2018-05-07T09:38:35.081Z,21.00
2018-05-07T09:41:01.498Z,21.10
2018-05-07T09:43:28.471Z,21.30
2018-05-07T09:46:03.375Z,21.30
2018-05-07T09:48:30.341Z,21.30
2018-05-07T09:50:56.711Z,21.30
2018-05-07T09:53:23.202Z,21.40
2018-05-07T09:55:49.553Z,21.60
2018-05-07T09:58:16.260Z,21.70
2018-05-07T10:00:53.642Z,21.80
2018-05-07T10:03:20.057Z,21.90
2018-05-07T10:05:46.982Z,22.00
2018-05-07T10:08:13.311Z,22.20
2018-05-07T10:10:39.719Z,22.20
2018-05-07T10:13:05.941Z,22.40
2018-05-07T10:15:32.728Z,22.60
2018-05-07T10:17:59.121Z,22.70
2018-05-07T10:20:25.460Z,22.70
2018-05-07T10:22:52.067Z,22.90
2018-05-07T10:25:18.401Z,23.00
2018-05-07T10:27:44.880Z,23.10
2018-05-07T10:30:12.195Z,23.20
2018-05-07T10:32:38.466Z,23.20
2018-05-07T10:35:04.709Z,23.30
2018-05-07T10:37:31.027Z,23.60
2018-05-07T10:39:57.436Z,23.70
2018-05-07T10:42:23.687Z,23.80
2018-05-07T10:44:50.716Z,23.80
2018-05-07T10:47:17.068Z,23.80
2018-05-07T10:49:43.479Z,23.90
2018-05-07T10:52:09.974Z,24.10
2018-05-07T10:54:36.211Z,24.30
2018-05-07T10:57:02.890Z,24.30
2018-05-07T10:59:29.172Z,24.40
2018-05-07T11:01:55.521Z,24.50
2018-05-07T11:04:22.895Z,24.60
2018-05-07T11:06:49.187Z,24.70
2018-05-07T11:09:15.453Z,24.70
2018-05-07T11:11:41.756Z,24.80
2018-05-07T11:14:08.131Z,24.90
2018-05-07T11:16:34.884Z,25.00
2018-05-07T11:19:01.308Z,25.10
2018-05-07T11:21:27.652Z,25.20
2018-05-07T11:23:54.360Z,25.30
2018-05-07T11:26:21.406Z,25.60
2018-05-07T11:28:47.675Z,25.60
2018-05-07T11:31:14.053Z,25.80
2018-05-07T11:33:40.406Z,25.90
2018-05-07T11:36:07.948Z,26.10
2018-05-07T11:38:34.164Z,26.00
2018-05-07T11:41:00.415Z,26.30
2018-05-07T11:43:27.375Z,26.50
2018-05-07T11:45:54.575Z,26.50
2018-05-07T11:48:21.025Z,26.80
2018-05-07T11:50:47.278Z,26.70
2018-05-07T11:53:13.540Z,27.00
2018-05-07T11:55:39.745Z,27.20
2018-05-07T11:58:06.022Z,27.40
2018-05-07T12:00:32.291Z,27.50
2018-05-07T12:02:58.562Z,27.50
2018-05-07T12:05:24.795Z,28.10
2018-05-07T12:07:51.144Z,28.10
2018-05-07T12:10:17.369Z,27.70
2018-05-07T12:12:43.602Z,28.50
2018-05-07T12:15:09.872Z,28.80
2018-05-07T12:17:37.139Z,28.70
2018-05-07T12:20:03.747Z,28.90
2018-05-07T12:22:33.555Z,29.40
2018-05-07T12:28:02.358Z,30.10
2018-05-07T12:30:31.541Z,29.60
2018-05-07T12:32:58.143Z,28.90
2018-05-07T12:35:26.503Z,29.50
2018-05-07T12:37:52.751Z,30.50
2018-05-07T12:40:19.009Z,30.90
2018-05-07T12:42:45.431Z,29.10
2018-05-07T12:45:11.680Z,28.20
2018-05-07T12:47:37.923Z,28.10
2018-05-07T12:50:04.256Z,29.60
2018-05-07T12:52:30.540Z,30.40
2018-05-07T12:54:56.903Z,31.00
2018-05-07T12:57:23.227Z,31.60
2018-05-07T12:59:49.432Z,31.80
2018-05-07T13:02:15.695Z,32.10
2018-05-07T13:04:41.994Z,32.60
2018-05-07T13:07:08.211Z,32.80
2018-05-07T13:09:34.490Z,32.70
2018-05-07T13:12:00.869Z,33.10
2018-05-07T13:14:28.336Z,32.40
2018-05-07T13:16:54.668Z,32.90
2018-05-07T13:19:20.897Z,33.40
2018-05-07T13:21:47.180Z,32.60
2018-05-07T13:24:14.476Z,32.90
2018-05-07T13:26:41.497Z,33.40
2018-05-07T13:29:07.960Z,33.40
2018-05-07T13:31:34.264Z,33.50
2018-05-07T13:34:00.653Z,33.50
2018-05-07T13:36:27.061Z,33.70
2018-05-07T13:38:53.332Z,33.60
2018-05-07T13:41:19.583Z,33.10
2018-05-07T13:43:45.795Z,33.00
2018-05-07T13:46:14.059Z,32.90
2018-05-07T13:48:40.378Z,32.80
2018-05-07T13:51:06.791Z,32.50
2018-05-07T13:53:33.053Z,32.00
2018-05-07T13:56:00.032Z,31.20
2018-05-07T13:58:26.359Z,31.20
2018-05-07T14:00:53.673Z,30.90
2018-05-07T14:03:19.906Z,30.80
2018-05-07T14:05:46.087Z,30.40
2018-05-07T14:08:12.314Z,30.20
2018-05-07T14:10:38.527Z,29.80
2018-05-07T14:13:05.746Z,29.50
2018-05-07T14:15:33.234Z,29.20
2018-05-07T14:17:59.468Z,29.00
2018-05-07T14:20:25.712Z,28.70
2018-05-07T14:22:52.689Z,27.90
2018-05-07T14:25:18.923Z,27.90
2018-05-07T14:27:45.149Z,27.60
2018-05-07T14:30:12.087Z,27.20
2018-05-07T14:32:38.283Z,27.20
2018-05-07T14:35:05.521Z,27.20
2018-05-07T14:37:31.775Z,27.10
2018-05-07T14:39:59.128Z,26.90
2018-05-07T14:42:25.559Z,26.70
2018-05-07T14:44:52.528Z,26.40
2018-05-07T14:47:18.791Z,26.30
2018-05-07T14:49:45.036Z,26.30
2018-05-07T14:52:13.273Z,26.30
2018-05-07T14:54:39.496Z,26.40
2018-05-07T14:57:05.769Z,26.30
2018-05-07T14:59:31.975Z,26.20
2018-05-07T15:01:58.308Z,26.20
2018-05-07T15:04:24.658Z,26.10
2018-05-07T15:06:51.920Z,26.20
2018-05-07T15:09:18.188Z,26.10
2018-05-07T15:11:44.500Z,26.00
2018-05-07T15:14:22.199Z,26.00
2018-05-07T15:16:48.427Z,26.10
2018-05-07T15:19:14.665Z,26.00
2018-05-07T15:21:40.879Z,26.00
2018-05-07T15:24:07.152Z,26.00
2018-05-07T15:26:34.397Z,26.00
2018-05-07T15:29:00.661Z,25.90
2018-05-07T15:31:26.900Z,25.90
2018-05-07T15:33:53.388Z,25.80
2018-05-07T15:36:19.704Z,25.70
2018-05-07T15:38:45.945Z,25.70
2018-05-07T15:41:12.167Z,25.70
2018-05-07T15:43:38.397Z,25.70
2018-05-07T15:46:04.670Z,25.70
2018-05-07T15:48:31.144Z,25.70
2018-05-07T15:50:57.434Z,25.60
2018-05-07T15:53:23.661Z,25.50
2018-05-07T15:55:50.634Z,25.60
2018-05-07T15:58:16.952Z,25.60
2018-05-07T16:00:43.176Z,25.60
2018-05-07T16:03:09.551Z,25.60
2018-05-07T16:05:35.693Z,25.60
2018-05-07T16:08:02.016Z,25.60
2018-05-07T16:10:28.211Z,25.60
2018-05-07T16:12:54.439Z,25.60
2018-05-07T16:15:20.753Z,25.60
2018-05-07T16:17:49.070Z,25.70
2018-05-07T16:20:15.327Z,25.80
2018-05-07T16:22:42.647Z,25.80
2018-05-07T16:25:09.032Z,25.70
2018-05-07T16:27:37.352Z,25.90
2018-05-07T16:30:04.708Z,26.00
2018-05-07T16:32:31.106Z,25.90
2018-05-07T16:34:57.380Z,25.80
2018-05-07T16:37:24.607Z,25.70
2018-05-07T16:39:51.070Z,25.70
2018-05-07T16:42:17.394Z,25.70
2018-05-07T16:44:43.979Z,25.60
2018-05-07T16:47:12.214Z,25.60
2018-05-07T16:49:39.525Z,25.60
2018-05-07T16:52:06.912Z,25.50
2018-05-07T16:54:33.159Z,25.60
2018-05-07T16:56:59.490Z,25.50
2018-05-07T16:59:25.966Z,25.50
2018-05-07T17:01:52.435Z,25.50
2018-05-07T17:04:19.559Z,25.40
2018-05-07T17:06:46.459Z,25.40
2018-05-07T17:09:14.844Z,25.30
2018-05-07T17:11:41.103Z,25.30
2018-05-07T17:14:10.412Z,25.30
2018-05-07T17:16:44.932Z,25.20
2018-05-07T17:19:11.178Z,25.20
2018-05-07T17:21:37.559Z,25.20
2018-05-07T17:24:03.891Z,25.20
2018-05-07T17:26:31.200Z,25.20
2018-05-07T17:28:57.459Z,25.20
2018-05-07T17:31:24.710Z,25.20
2018-05-07T17:33:52.049Z,25.10
2018-05-07T17:36:31.589Z,25.10
2018-05-07T17:38:58.706Z,25.00
2018-05-07T17:41:25.060Z,25.00
2018-05-07T17:44:08.276Z,25.00
2018-05-07T17:46:46.550Z,25.00
2018-05-07T17:49:12.927Z,25.00
2018-05-07T17:51:39.144Z,24.90
2018-05-07T17:54:05.782Z,24.70
2018-05-07T17:56:34.070Z,24.60
2018-05-07T17:59:02.468Z,24.60
2018-05-07T18:01:28.722Z,24.50
2018-05-07T18:03:56.268Z,24.40
2018-05-07T18:06:26.734Z,24.20
2018-05-07T18:08:53.119Z,24.10
2018-05-07T18:11:20.384Z,23.90
2018-05-07T18:13:46.811Z,23.80
2018-05-07T18:16:14.131Z,23.70
2018-05-07T18:18:41.397Z,23.50
2018-05-07T18:21:13.017Z,23.40
2018-05-07T18:23:39.431Z,23.20
2018-05-07T18:26:06.155Z,23.10
2018-05-07T18:28:32.655Z,22.90
2018-05-07T18:31:00.471Z,22.70
2018-05-07T18:33:32.531Z,22.50
2018-05-07T18:35:59.927Z,22.50
2018-05-07T18:38:26.355Z,22.40
2018-05-07T18:40:56.369Z,22.30
2018-05-07T18:43:22.684Z,22.20
2018-05-07T18:45:49.761Z,21.80
2018-05-07T18:48:17.117Z,21.80
2018-05-07T18:50:43.345Z,21.70
2018-05-07T18:53:32.114Z,21.50
2018-05-07T18:56:00.192Z,21.30
2018-05-07T18:58:28.253Z,20.90
2018-05-07T19:00:54.462Z,20.90
2018-05-07T19:03:20.683Z,20.60
2018-05-07T19:05:46.929Z,20.50
2018-05-07T19:08:13.235Z,20.30
2018-05-07T19:10:39.466Z,20.20
2018-05-07T19:13:05.800Z,20.20
2018-05-07T19:15:32.233Z,20.20
2018-05-07T19:17:58.604Z,20.40
2018-05-07T19:20:25.048Z,20.40
2018-05-07T19:22:51.478Z,20.40
2018-05-07T19:25:17.960Z,20.30
2018-05-07T19:27:44.223Z,20.30
2018-05-07T19:30:10.519Z,20.30
2018-05-07T19:32:37.043Z,20.30
2018-05-07T19:35:03.386Z,20.20
2018-05-07T19:37:31.324Z,20.20
2018-05-07T19:40:02.352Z,20.20
2018-05-07T19:42:31.517Z,20.20
2018-05-07T19:45:01.808Z,20.10
2018-05-07T19:47:31.780Z,20.10
2018-05-07T19:50:02.234Z,20.10
2018-05-07T19:52:28.633Z,20.10
2018-05-07T19:54:55.895Z,20.00
2018-05-07T19:57:22.359Z,20.00
2018-05-07T19:59:48.703Z,20.00
2018-05-07T20:02:15.026Z,19.90
2018-05-07T20:04:43.976Z,19.80
2018-05-07T20:07:10.350Z,19.80
2018-05-07T20:09:37.429Z,19.80
2018-05-07T20:12:03.794Z,19.70
2018-05-07T20:14:30.816Z,19.80
2018-05-07T20:16:57.049Z,19.70
2018-05-07T20:19:23.330Z,19.70
2018-05-07T20:21:50.264Z,19.70
2018-05-07T20:24:16.554Z,19.70
2018-05-07T20:26:42.780Z,19.70
2018-05-07T20:29:09.832Z,19.60
2018-05-07T20:31:37.205Z,19.60
2018-05-07T20:34:03.655Z,19.60
2018-05-07T20:36:30.656Z,19.60
2018-05-07T20:38:56.879Z,19.60
2018-05-07T20:41:23.127Z,19.50
2018-05-07T20:43:49.432Z,19.50
2018-05-07T20:46:15.692Z,19.50
2018-05-07T20:48:41.932Z,19.50
2018-05-07T20:51:08.163Z,19.30
2018-05-07T20:53:35.151Z,19.30
2018-05-07T20:56:02.545Z,19.30
2018-05-07T20:58:29.828Z,19.20
2018-05-07T21:00:57.065Z,19.20
2018-05-07T21:03:23.491Z,19.20
2018-05-07T21:05:49.748Z,19.10
2018-05-07T21:08:29.626Z,19.10
2018-05-07T21:10:55.945Z,19.00
2018-05-07T21:13:22.165Z,19.00
2018-05-07T21:15:48.399Z,18.90
2018-05-07T21:18:14.665Z,18.90
2018-05-07T21:20:40.947Z,18.80
2018-05-07T21:23:07.583Z,18.70
2018-05-07T21:25:34.111Z,18.70
2018-05-07T21:28:00.387Z,18.70
2018-05-07T21:30:26.616Z,18.60
2018-05-07T21:32:52.917Z,18.60
2018-05-07T21:35:19.171Z,18.50
2018-05-07T21:37:45.588Z,18.50
2018-05-07T21:40:11.857Z,18.40
2018-05-07T21:42:38.161Z,18.30
2018-05-07T21:45:04.536Z,18.30
2018-05-07T21:47:30.789Z,18.20
2018-05-07T21:49:57.128Z,18.20
2018-05-07T21:52:23.382Z,18.10
2018-05-07T21:54:49.851Z,18.10
2018-05-07T21:57:16.062Z,18.10
2018-05-07T21:59:42.300Z,18.00
2018-05-07T22:02:08.661Z,17.90
2018-05-07T22:04:34.836Z,17.80
2018-05-07T22:07:01.135Z,17.80
2018-05-07T22:09:28.489Z,17.80
2018-05-07T22:11:54.754Z,17.70
2018-05-07T22:14:21.084Z,17.70
2018-05-07T22:16:47.369Z,17.70
2018-05-07T22:19:14.018Z,17.60
2018-05-07T22:21:41.282Z,17.50
2018-05-07T22:24:07.571Z,17.50
2018-05-07T22:26:33.904Z,17.50
2018-05-07T22:29:01.532Z,17.50
2018-05-07T22:31:32.313Z,17.50
2018-05-07T22:34:03.536Z,17.40
2018-05-07T22:36:32.321Z,17.40
2018-05-07T22:38:59.123Z,17.40
2018-05-07T22:41:25.391Z,17.40
2018-05-07T22:43:51.740Z,17.20
2018-05-07T22:46:18.334Z,17.20
2018-05-07T22:48:45.413Z,17.00
2018-05-07T22:51:11.666Z,17.00
2018-05-07T22:53:38.138Z,17.00
2018-05-07T22:56:04.439Z,16.90
2018-05-07T22:58:30.950Z,16.90
2018-05-07T23:01:02.633Z,16.80
2018-05-07T23:03:32.293Z,16.80
2018-05-07T23:06:04.662Z,16.70
2018-05-07T23:08:31.891Z,16.70
2018-05-07T23:10:58.696Z,16.60
2018-05-07T23:13:32.915Z,16.60
2018-05-07T23:16:02.932Z,16.60
2018-05-07T23:18:32.274Z,16.50
2018-05-07T23:21:03.104Z,16.40
2018-05-07T23:23:35.590Z,16.40
2018-05-07T23:26:01.992Z,16.40
2018-05-07T23:28:32.121Z,16.40
2018-05-07T23:31:02.187Z,16.40
2018-05-07T23:33:32.355Z,16.40
2018-05-07T23:36:02.649Z,16.30
2018-05-07T23:38:32.880Z,16.20
2018-05-07T23:41:03.168Z,16.20
2018-05-07T23:43:33.331Z,16.20
2018-05-07T23:46:02.220Z,16.20
2018-05-07T23:48:32.469Z,16.20
2018-05-07T23:51:02.091Z,16.10
2018-05-07T23:53:34.328Z,16.20
2018-05-07T23:56:05.980Z,16.20
2018-05-07T23:58:32.269Z,16.10
